DNR weather

Dinard-Pleurtuit-Saint-Malo Airport
Dinard/Pleurtuit/Saint-Malo, Brittany, France

Public forecast

Using degrees Celsius for public forecast. Weather courtesy of forecast.io.

METAR (pilot weather report)

Retrieved 2019/09/16 07:30 UTC (16 minutes ago):

LFRD 160730Z AUTO 22004KT 7000 FEW001 13/13 Q1023 TEMPO BKN010 BECMG 33010KT

TAF (pilot weather forecast)

Retrieved 2019/09/16 06:21 UTC (1 hour ago):

TAF LFRD 160500Z 1606/1706 VRB04KT 3000 BR BKN010 TEMPO 1606/1607 0500 BCFG BECMG 1607/1609 6000 NSW SCT010 BECMG 1609/1612 33010KT PROB30 TEMPO 1609/1612 BKN010 BECMG 1616/1618 BKN015 BECMG 1620/1622 OVC008 BECMG 1623/1702 03005KT PROB40 TEMPO 1702/1706 4000 DZ BR BKN004